sensor_id;sensor_type;location;lat;lon;timestamp;P1;durP1;ratioP1;P2;durP2;ratioP2
40757;SDS011;26462;47.384;19.218;2023-07-30T00:00:51;1.92;;;0.73;;
40757;SDS011;26462;47.384;19.218;2023-07-30T00:03:21;1.70;;;0.70;;
40757;SDS011;26462;47.384;19.218;2023-07-30T00:05:52;2.03;;;0.82;;
40757;SDS011;26462;47.384;19.218;2023-07-30T00:08:20;2.05;;;0.88;;
40757;SDS011;26462;47.384;19.218;2023-07-30T00:10:48;1.65;;;0.93;;
40757;SDS011;26462;47.384;19.218;2023-07-30T00:13:15;3.63;;;1.00;;
40757;SDS011;26462;47.384;19.218;2023-07-30T00:15:43;2.38;;;0.80;;
40757;SDS011;26462;47.384;19.218;2023-07-30T00:18:12;1.92;;;0.77;;
40757;SDS011;26462;47.384;19.218;2023-07-30T00:20:42;1.52;;;0.90;;
40757;SDS011;26462;47.384;19.218;2023-07-30T00:23:11;2.05;;;0.73;;
40757;SDS011;26462;47.384;19.218;2023-07-30T00:25:38;3.35;;;0.75;;
40757;SDS011;26462;47.384;19.218;2023-07-30T00:28:05;2.45;;;1.00;;
40757;SDS011;26462;47.384;19.218;2023-07-30T00:30:33;5.95;;;1.30;;
40757;SDS011;26462;47.384;19.218;2023-07-30T00:33:00;2.20;;;0.95;;
40757;SDS011;26462;47.384;19.218;2023-07-30T00:35:28;1.92;;;0.93;;
40757;SDS011;26462;47.384;19.218;2023-07-30T00:37:55;3.03;;;1.15;;
40757;SDS011;26462;47.384;19.218;2023-07-30T00:40:22;1.75;;;0.85;;
40757;SDS011;26462;47.384;19.218;2023-07-30T00:42:49;2.03;;;1.00;;
40757;SDS011;26462;47.384;19.218;2023-07-30T00:45:17;2.42;;;0.98;;
40757;SDS011;26462;47.384;19.218;2023-07-30T00:47:44;2.53;;;0.88;;
40757;SDS011;26462;47.384;19.218;2023-07-30T00:50:12;2.17;;;0.98;;
40757;SDS011;26462;47.384;19.218;2023-07-30T00:52:41;2.67;;;0.95;;
40757;SDS011;26462;47.384;19.218;2023-07-30T00:55:10;4.00;;;1.08;;
40757;SDS011;26462;47.384;19.218;2023-07-30T00:57:37;2.72;;;1.15;;
40757;SDS011;26462;47.384;19.218;2023-07-30T01:00:07;3.83;;;0.70;;
40757;SDS011;26462;47.384;19.218;2023-07-30T01:02:38;1.42;;;0.60;;
40757;SDS011;26462;47.384;19.218;2023-07-30T01:05:05;1.70;;;1.13;;
40757;SDS011;26462;47.384;19.218;2023-07-30T01:07:35;1.38;;;0.55;;
40757;SDS011;26462;47.384;19.218;2023-07-30T01:10:02;1.65;;;0.65;;
40757;SDS011;26462;47.384;19.218;2023-07-30T01:12:32;2.67;;;0.85;;
40757;SDS011;26462;47.384;19.218;2023-07-30T01:15:01;2.85;;;0.70;;
40757;SDS011;26462;47.384;19.218;2023-07-30T01:17:32;3.88;;;1.10;;
40757;SDS011;26462;47.384;19.218;2023-07-30T01:20:00;1.15;;;0.68;;
40757;SDS011;26462;47.384;19.218;2023-07-30T01:22:27;1.42;;;0.52;;
40757;SDS011;26462;47.384;19.218;2023-07-30T01:24:55;2.38;;;0.93;;
40757;SDS011;26462;47.384;19.218;2023-07-30T01:27:24;1.63;;;0.57;;
40757;SDS011;26462;47.384;19.218;2023-07-30T01:30:05;2.38;;;0.93;;
40757;SDS011;26462;47.384;19.218;2023-07-30T01:32:38;2.97;;;0.50;;
40757;SDS011;26462;47.384;19.218;2023-07-30T01:35:08;2.35;;;0.30;;
40757;SDS011;26462;47.384;19.218;2023-07-30T01:37:36;1.75;;;0.70;;
40757;SDS011;26462;47.384;19.218;2023-07-30T01:40:07;1.40;;;0.40;;
40757;SDS011;26462;47.384;19.218;2023-07-30T01:42:36;1.10;;;0.40;;
40757;SDS011;26462;47.384;19.218;2023-07-30T01:45:04;1.95;;;0.60;;
40757;SDS011;26462;47.384;19.218;2023-07-30T01:47:32;2.95;;;0.88;;
40757;SDS011;26462;47.384;19.218;2023-07-30T01:50:06;1.40;;;0.40;;
40757;SDS011;26462;47.384;19.218;2023-07-30T01:52:34;2.00;;;0.30;;
40757;SDS011;26462;47.384;19.218;2023-07-30T01:55:01;3.40;;;0.50;;
40757;SDS011;26462;47.384;19.218;2023-07-30T01:57:28;1.08;;;0.40;;
40757;SDS011;26462;47.384;19.218;2023-07-30T01:59:55;2.63;;;0.50;;
40757;SDS011;26462;47.384;19.218;2023-07-30T02:02:23;1.13;;;0.52;;
40757;SDS011;26462;47.384;19.218;2023-07-30T02:04:52;0.90;;;0.50;;
40757;SDS011;26462;47.384;19.218;2023-07-30T02:07:19;1.17;;;0.50;;
40757;SDS011;26462;47.384;19.218;2023-07-30T02:09:46;1.05;;;0.40;;
40757;SDS011;26462;47.384;19.218;2023-07-30T02:12:15;1.10;;;0.40;;
40757;SDS011;26462;47.384;19.218;2023-07-30T02:14:43;0.90;;;0.50;;
40757;SDS011;26462;47.384;19.218;2023-07-30T02:17:10;2.03;;;0.80;;
40757;SDS011;26462;47.384;19.218;2023-07-30T02:19:37;1.27;;;0.50;;
40757;SDS011;26462;47.384;19.218;2023-07-30T02:22:04;3.70;;;0.60;;
40757;SDS011;26462;47.384;19.218;2023-07-30T02:24:32;0.73;;;0.32;;
40757;SDS011;26462;47.384;19.218;2023-07-30T02:27:00;1.20;;;0.40;;
40757;SDS011;26462;47.384;19.218;2023-07-30T02:29:27;1.20;;;0.40;;
40757;SDS011;26462;47.384;19.218;2023-07-30T02:31:58;1.67;;;0.40;;
40757;SDS011;26462;47.384;19.218;2023-07-30T02:34:26;1.45;;;0.40;;
40757;SDS011;26462;47.384;19.218;2023-07-30T02:36:55;2.33;;;0.40;;
40757;SDS011;26462;47.384;19.218;2023-07-30T02:39:22;1.13;;;0.65;;
40757;SDS011;26462;47.384;19.218;2023-07-30T02:41:49;1.70;;;0.70;;
40757;SDS011;26462;47.384;19.218;2023-07-30T02:44:19;1.10;;;0.43;;
40757;SDS011;26462;47.384;19.218;2023-07-30T02:46:46;2.03;;;0.65;;
40757;SDS011;26462;47.384;19.218;2023-07-30T02:49:21;1.50;;;0.40;;
40757;SDS011;26462;47.384;19.218;2023-07-30T02:51:48;2.63;;;0.40;;
40757;SDS011;26462;47.384;19.218;2023-07-30T02:54:15;0.98;;;0.38;;
40757;SDS011;26462;47.384;19.218;2023-07-30T02:56:48;2.25;;;0.50;;
40757;SDS011;26462;47.384;19.218;2023-07-30T02:59:16;1.33;;;0.50;;
40757;SDS011;26462;47.384;19.218;2023-07-30T03:01:43;0.98;;;0.50;;
40757;SDS011;26462;47.384;19.218;2023-07-30T03:04:12;2.25;;;0.55;;
40757;SDS011;26462;47.384;19.218;2023-07-30T03:06:40;1.95;;;0.85;;
40757;SDS011;26462;47.384;19.218;2023-07-30T03:09:08;2.85;;;1.30;;
40757;SDS011;26462;47.384;19.218;2023-07-30T03:11:36;2.58;;;0.43;;
40757;SDS011;26462;47.384;19.218;2023-07-30T03:14:06;2.47;;;0.77;;
40757;SDS011;26462;47.384;19.218;2023-07-30T03:16:34;3.78;;;0.82;;
40757;SDS011;26462;47.384;19.218;2023-07-30T03:19:01;1.58;;;0.60;;
40757;SDS011;26462;47.384;19.218;2023-07-30T03:21:28;3.35;;;0.80;;
40757;SDS011;26462;47.384;19.218;2023-07-30T03:23:57;1.50;;;0.68;;
40757;SDS011;26462;47.384;19.218;2023-07-30T03:26:25;1.33;;;0.65;;
40757;SDS011;26462;47.384;19.218;2023-07-30T03:28:53;1.88;;;0.70;;
40757;SDS011;26462;47.384;19.218;2023-07-30T03:31:20;3.20;;;0.47;;
40757;SDS011;26462;47.384;19.218;2023-07-30T03:33:50;1.95;;;0.50;;
40757;SDS011;26462;47.384;19.218;2023-07-30T03:36:17;1.40;;;0.85;;
40757;SDS011;26462;47.384;19.218;2023-07-30T03:38:47;1.98;;;0.50;;
40757;SDS011;26462;47.384;19.218;2023-07-30T03:41:17;1.70;;;0.65;;
40757;SDS011;26462;47.384;19.218;2023-07-30T03:43:45;2.28;;;0.80;;
40757;SDS011;26462;47.384;19.218;2023-07-30T03:46:12;2.40;;;0.90;;
40757;SDS011;26462;47.384;19.218;2023-07-30T03:48:41;3.05;;;0.73;;
40757;SDS011;26462;47.384;19.218;2023-07-30T03:51:09;1.85;;;0.60;;
40757;SDS011;26462;47.384;19.218;2023-07-30T03:53:37;2.70;;;0.68;;
40757;SDS011;26462;47.384;19.218;2023-07-30T03:56:04;0.90;;;0.43;;
40757;SDS011;26462;47.384;19.218;2023-07-30T03:58:32;1.42;;;0.73;;
40757;SDS011;26462;47.384;19.218;2023-07-30T04:00:59;2.05;;;0.65;;
40757;SDS011;26462;47.384;19.218;2023-07-30T04:03:27;1.63;;;0.63;;
40757;SDS011;26462;47.384;19.218;2023-07-30T04:05:54;1.45;;;0.77;;
40757;SDS011;26462;47.384;19.218;2023-07-30T04:08:22;3.65;;;0.63;;
40757;SDS011;26462;47.384;19.218;2023-07-30T04:10:49;1.55;;;0.52;;
40757;SDS011;26462;47.384;19.218;2023-07-30T04:13:16;2.58;;;0.77;;
40757;SDS011;26462;47.384;19.218;2023-07-30T04:15:43;3.25;;;0.50;;
40757;SDS011;26462;47.384;19.218;2023-07-30T04:18:10;4.05;;;1.05;;
40757;SDS011;26462;47.384;19.218;2023-07-30T04:20:37;1.77;;;0.93;;
40757;SDS011;26462;47.384;19.218;2023-07-30T04:23:07;3.22;;;0.95;;
40757;SDS011;26462;47.384;19.218;2023-07-30T04:25:34;2.05;;;0.77;;
40757;SDS011;26462;47.384;19.218;2023-07-30T04:28:02;1.67;;;0.80;;
40757;SDS011;26462;47.384;19.218;2023-07-30T04:30:29;2.70;;;0.43;;
40757;SDS011;26462;47.384;19.218;2023-07-30T04:32:57;1.73;;;0.80;;
40757;SDS011;26462;47.384;19.218;2023-07-30T04:35:25;1.70;;;0.70;;
40757;SDS011;26462;47.384;19.218;2023-07-30T04:37:52;2.95;;;0.50;;
40757;SDS011;26462;47.384;19.218;2023-07-30T04:40:20;2.05;;;0.80;;
40757;SDS011;26462;47.384;19.218;2023-07-30T04:42:49;1.17;;;0.70;;
40757;SDS011;26462;47.384;19.218;2023-07-30T04:45:17;1.35;;;0.60;;
40757;SDS011;26462;47.384;19.218;2023-07-30T04:47:46;1.10;;;0.45;;
40757;SDS011;26462;47.384;19.218;2023-07-30T04:50:14;3.20;;;0.88;;
40757;SDS011;26462;47.384;19.218;2023-07-30T04:52:43;1.10;;;0.60;;
40757;SDS011;26462;47.384;19.218;2023-07-30T04:55:11;3.67;;;0.85;;
40757;SDS011;26462;47.384;19.218;2023-07-30T04:57:39;2.92;;;0.80;;
40757;SDS011;26462;47.384;19.218;2023-07-30T05:00:10;1.42;;;0.75;;
40757;SDS011;26462;47.384;19.218;2023-07-30T05:02:39;2.25;;;0.75;;
40757;SDS011;26462;47.384;19.218;2023-07-30T05:05:08;2.70;;;0.93;;
40757;SDS011;26462;47.384;19.218;2023-07-30T05:07:35;2.63;;;1.30;;
40757;SDS011;26462;47.384;19.218;2023-07-30T05:10:02;2.38;;;1.00;;
40757;SDS011;26462;47.384;19.218;2023-07-30T05:12:34;1.40;;;0.52;;
40757;SDS011;26462;47.384;19.218;2023-07-30T05:15:04;4.40;;;1.00;;
40757;SDS011;26462;47.384;19.218;2023-07-30T05:17:32;1.70;;;0.90;;
40757;SDS011;26462;47.384;19.218;2023-07-30T05:20:00;2.30;;;0.88;;
40757;SDS011;26462;47.384;19.218;2023-07-30T05:22:27;2.22;;;0.95;;
40757;SDS011;26462;47.384;19.218;2023-07-30T05:24:56;1.88;;;0.93;;
40757;SDS011;26462;47.384;19.218;2023-07-30T05:27:23;3.28;;;0.68;;
40757;SDS011;26462;47.384;19.218;2023-07-30T05:29:57;3.88;;;1.38;;
40757;SDS011;26462;47.384;19.218;2023-07-30T05:32:25;5.57;;;2.85;;
40757;SDS011;26462;47.384;19.218;2023-07-30T05:34:52;4.13;;;2.80;;
40757;SDS011;26462;47.384;19.218;2023-07-30T05:37:23;6.07;;;3.13;;
40757;SDS011;26462;47.384;19.218;2023-07-30T05:39:54;3.17;;;1.70;;
40757;SDS011;26462;47.384;19.218;2023-07-30T05:42:22;4.05;;;1.40;;
40757;SDS011;26462;47.384;19.218;2023-07-30T05:44:50;4.22;;;1.88;;
40757;SDS011;26462;47.384;19.218;2023-07-30T05:47:18;4.93;;;2.33;;
40757;SDS011;26462;47.384;19.218;2023-07-30T05:49:46;3.58;;;2.13;;
40757;SDS011;26462;47.384;19.218;2023-07-30T05:52:13;3.58;;;2.05;;
40757;SDS011;26462;47.384;19.218;2023-07-30T05:54:40;3.38;;;2.17;;
40757;SDS011;26462;47.384;19.218;2023-07-30T05:57:07;4.20;;;2.33;;
40757;SDS011;26462;47.384;19.218;2023-07-30T05:59:34;6.30;;;2.03;;
40757;SDS011;26462;47.384;19.218;2023-07-30T06:02:04;2.38;;;1.80;;
40757;SDS011;26462;47.384;19.218;2023-07-30T06:04:32;3.00;;;1.40;;
40757;SDS011;26462;47.384;19.218;2023-07-30T06:07:01;3.88;;;1.27;;
40757;SDS011;26462;47.384;19.218;2023-07-30T06:09:29;3.33;;;1.00;;
40757;SDS011;26462;47.384;19.218;2023-07-30T06:11:59;4.60;;;1.00;;
40757;SDS011;26462;47.384;19.218;2023-07-30T06:14:26;3.33;;;0.70;;
40757;SDS011;26462;47.384;19.218;2023-07-30T06:16:54;6.68;;;1.17;;
40757;SDS011;26462;47.384;19.218;2023-07-30T06:19:21;2.10;;;0.93;;
40757;SDS011;26462;47.384;19.218;2023-07-30T06:21:48;3.78;;;0.68;;
40757;SDS011;26462;47.384;19.218;2023-07-30T06:24:15;3.58;;;1.20;;
40757;SDS011;26462;47.384;19.218;2023-07-30T06:27:02;2.85;;;1.00;;
40757;SDS011;26462;47.384;19.218;2023-07-30T06:29:29;1.90;;;0.85;;
40757;SDS011;26462;47.384;19.218;2023-07-30T06:31:56;3.58;;;1.35;;
40757;SDS011;26462;47.384;19.218;2023-07-30T06:34:23;2.70;;;1.10;;
40757;SDS011;26462;47.384;19.218;2023-07-30T06:36:50;2.58;;;0.90;;
40757;SDS011;26462;47.384;19.218;2023-07-30T06:39:17;4.15;;;1.00;;
40757;SDS011;26462;47.384;19.218;2023-07-30T06:41:44;2.05;;;0.98;;
40757;SDS011;26462;47.384;19.218;2023-07-30T06:44:13;3.22;;;0.70;;
40757;SDS011;26462;47.384;19.218;2023-07-30T06:46:41;3.35;;;1.05;;
40757;SDS011;26462;47.384;19.218;2023-07-30T06:49:08;2.25;;;0.93;;
40757;SDS011;26462;47.384;19.218;2023-07-30T06:51:35;2.78;;;0.70;;
40757;SDS011;26462;47.384;19.218;2023-07-30T06:54:02;1.98;;;0.98;;
40757;SDS011;26462;47.384;19.218;2023-07-30T06:56:29;3.63;;;0.90;;
40757;SDS011;26462;47.384;19.218;2023-07-30T06:58:56;2.25;;;0.80;;
40757;SDS011;26462;47.384;19.218;2023-07-30T07:01:24;1.33;;;0.63;;
40757;SDS011;26462;47.384;19.218;2023-07-30T07:03:51;1.55;;;0.73;;
40757;SDS011;26462;47.384;19.218;2023-07-30T07:06:18;2.25;;;0.95;;
40757;SDS011;26462;47.384;19.218;2023-07-30T07:08:45;2.08;;;0.88;;
40757;SDS011;26462;47.384;19.218;2023-07-30T07:11:12;1.52;;;0.77;;
40757;SDS011;26462;47.384;19.218;2023-07-30T07:13:39;2.55;;;0.70;;
40757;SDS011;26462;47.384;19.218;2023-07-30T07:16:06;1.38;;;0.68;;
40757;SDS011;26462;47.384;19.218;2023-07-30T07:18:34;1.77;;;0.77;;
40757;SDS011;26462;47.384;19.218;2023-07-30T07:21:01;1.75;;;0.90;;
40757;SDS011;26462;47.384;19.218;2023-07-30T07:23:28;2.03;;;0.80;;
40757;SDS011;26462;47.384;19.218;2023-07-30T07:25:55;2.72;;;1.05;;
40757;SDS011;26462;47.384;19.218;2023-07-30T07:28:22;1.38;;;0.50;;
40757;SDS011;26462;47.384;19.218;2023-07-30T07:30:50;1.30;;;0.70;;
40757;SDS011;26462;47.384;19.218;2023-07-30T07:33:17;1.83;;;0.82;;
40757;SDS011;26462;47.384;19.218;2023-07-30T07:35:44;1.58;;;0.77;;
40757;SDS011;26462;47.384;19.218;2023-07-30T07:38:11;2.83;;;0.98;;
40757;SDS011;26462;47.384;19.218;2023-07-30T07:40:38;1.98;;;0.85;;
40757;SDS011;26462;47.384;19.218;2023-07-30T07:43:08;1.35;;;0.75;;
40757;SDS011;26462;47.384;19.218;2023-07-30T07:45:35;2.38;;;0.93;;
40757;SDS011;26462;47.384;19.218;2023-07-30T07:48:02;2.05;;;1.00;;
40757;SDS011;26462;47.384;19.218;2023-07-30T07:50:30;2.17;;;0.75;;
40757;SDS011;26462;47.384;19.218;2023-07-30T07:52:57;2.05;;;0.85;;
40757;SDS011;26462;47.384;19.218;2023-07-30T07:55:24;1.67;;;0.90;;
40757;SDS011;26462;47.384;19.218;2023-07-30T07:57:51;1.63;;;0.70;;
40757;SDS011;26462;47.384;19.218;2023-07-30T08:00:21;3.08;;;0.82;;
40757;SDS011;26462;47.384;19.218;2023-07-30T08:02:48;2.63;;;0.90;;
40757;SDS011;26462;47.384;19.218;2023-07-30T08:05:17;1.75;;;0.85;;
40757;SDS011;26462;47.384;19.218;2023-07-30T08:07:46;2.13;;;0.75;;
40757;SDS011;26462;47.384;19.218;2023-07-30T08:10:14;2.00;;;0.70;;
40757;SDS011;26462;47.384;19.218;2023-07-30T08:12:41;1.60;;;1.25;;
40757;SDS011;26462;47.384;19.218;2023-07-30T08:15:09;2.80;;;1.20;;
40757;SDS011;26462;47.384;19.218;2023-07-30T08:17:36;2.58;;;0.80;;
40757;SDS011;26462;47.384;19.218;2023-07-30T08:20:03;2.30;;;0.70;;
40757;SDS011;26462;47.384;19.218;2023-07-30T08:22:32;1.65;;;0.98;;
40757;SDS011;26462;47.384;19.218;2023-07-30T08:25:00;4.70;;;1.27;;
40757;SDS011;26462;47.384;19.218;2023-07-30T08:27:27;3.60;;;1.15;;
40757;SDS011;26462;47.384;19.218;2023-07-30T08:29:54;2.72;;;0.95;;
40757;SDS011;26462;47.384;19.218;2023-07-30T08:32:22;1.45;;;0.70;;
40757;SDS011;26462;47.384;19.218;2023-07-30T08:34:49;2.53;;;1.00;;
40757;SDS011;26462;47.384;19.218;2023-07-30T08:37:16;1.73;;;0.90;;
40757;SDS011;26462;47.384;19.218;2023-07-30T08:39:43;2.28;;;1.10;;
40757;SDS011;26462;47.384;19.218;2023-07-30T08:42:14;1.60;;;0.90;;
40757;SDS011;26462;47.384;19.218;2023-07-30T08:44:42;1.90;;;1.20;;
40757;SDS011;26462;47.384;19.218;2023-07-30T08:47:09;2.63;;;1.10;;
40757;SDS011;26462;47.384;19.218;2023-07-30T08:49:37;2.08;;;0.90;;
40757;SDS011;26462;47.384;19.218;2023-07-30T08:52:04;2.97;;;0.93;;
40757;SDS011;26462;47.384;19.218;2023-07-30T08:54:36;1.77;;;0.80;;
40757;SDS011;26462;47.384;19.218;2023-07-30T08:57:05;3.05;;;0.95;;
40757;SDS011;26462;47.384;19.218;2023-07-30T08:59:35;2.60;;;1.05;;
40757;SDS011;26462;47.384;19.218;2023-07-30T09:02:11;3.70;;;1.30;;
40757;SDS011;26462;47.384;19.218;2023-07-30T09:04:45;2.22;;;1.00;;
40757;SDS011;26462;47.384;19.218;2023-07-30T09:07:15;3.28;;;1.23;;
40757;SDS011;26462;47.384;19.218;2023-07-30T09:09:42;1.95;;;0.88;;
40757;SDS011;26462;47.384;19.218;2023-07-30T09:12:14;2.63;;;0.90;;
40757;SDS011;26462;47.384;19.218;2023-07-30T09:14:41;2.65;;;0.93;;
40757;SDS011;26462;47.384;19.218;2023-07-30T09:17:18;1.88;;;0.70;;
40757;SDS011;26462;47.384;19.218;2023-07-30T09:19:45;2.10;;;1.00;;
40757;SDS011;26462;47.384;19.218;2023-07-30T09:22:24;1.33;;;0.68;;
40757;SDS011;26462;47.384;19.218;2023-07-30T09:24:55;2.75;;;0.70;;
40757;SDS011;26462;47.384;19.218;2023-07-30T09:27:24;2.38;;;1.00;;
40757;SDS011;26462;47.384;19.218;2023-07-30T09:29:53;2.60;;;1.30;;
40757;SDS011;26462;47.384;19.218;2023-07-30T09:32:25;2.10;;;0.90;;
40757;SDS011;26462;47.384;19.218;2023-07-30T09:35:03;2.17;;;1.00;;
40757;SDS011;26462;47.384;19.218;2023-07-30T09:37:38;1.67;;;0.93;;
40757;SDS011;26462;47.384;19.218;2023-07-30T09:40:08;2.80;;;1.20;;
40757;SDS011;26462;47.384;19.218;2023-07-30T09:42:44;3.08;;;0.80;;
40757;SDS011;26462;47.384;19.218;2023-07-30T09:45:22;2.88;;;1.15;;
40757;SDS011;26462;47.384;19.218;2023-07-30T09:47:52;1.50;;;0.75;;
40757;SDS011;26462;47.384;19.218;2023-07-30T09:50:25;1.48;;;0.75;;
40757;SDS011;26462;47.384;19.218;2023-07-30T09:53:47;2.80;;;1.10;;
40757;SDS011;26462;47.384;19.218;2023-07-30T09:56:20;3.58;;;1.10;;
40757;SDS011;26462;47.384;19.218;2023-07-30T09:58:47;4.50;;;2.28;;
40757;SDS011;26462;47.384;19.218;2023-07-30T10:11:47;4.00;;;2.25;;
40757;SDS011;26462;47.384;19.218;2023-07-30T10:18:45;3.42;;;1.65;;
40757;SDS011;26462;47.384;19.218;2023-07-30T10:21:45;3.65;;;1.23;;
40757;SDS011;26462;47.384;19.218;2023-07-30T10:24:17;2.83;;;1.20;;
40757;SDS011;26462;47.384;19.218;2023-07-30T10:26:45;2.95;;;1.85;;
40757;SDS011;26462;47.384;19.218;2023-07-30T10:32:37;5.65;;;3.17;;
40757;SDS011;26462;47.384;19.218;2023-07-30T10:35:34;5.03;;;3.08;;
40757;SDS011;26462;47.384;19.218;2023-07-30T10:41:04;3.75;;;1.48;;
40757;SDS011;26462;47.384;19.218;2023-07-30T10:43:34;2.42;;;1.40;;
40757;SDS011;26462;47.384;19.218;2023-07-30T10:46:12;2.85;;;1.17;;
40757;SDS011;26462;47.384;19.218;2023-07-30T10:48:41;2.97;;;1.50;;
40757;SDS011;26462;47.384;19.218;2023-07-30T10:51:14;3.25;;;1.40;;
40757;SDS011;26462;47.384;19.218;2023-07-30T10:53:47;3.45;;;1.27;;
40757;SDS011;26462;47.384;19.218;2023-07-30T10:56:22;4.00;;;1.55;;
40757;SDS011;26462;47.384;19.218;2023-07-30T10:58:51;5.28;;;1.92;;
40757;SDS011;26462;47.384;19.218;2023-07-30T11:01:25;3.40;;;1.77;;
40757;SDS011;26462;47.384;19.218;2023-07-30T11:03:53;4.30;;;2.15;;
40757;SDS011;26462;47.384;19.218;2023-07-30T11:06:24;4.72;;;2.03;;
40757;SDS011;26462;47.384;19.218;2023-07-30T11:08:53;4.25;;;1.73;;
40757;SDS011;26462;47.384;19.218;2023-07-30T11:11:20;3.45;;;2.05;;
40757;SDS011;26462;47.384;19.218;2023-07-30T11:13:51;2.97;;;1.58;;
40757;SDS011;26462;47.384;19.218;2023-07-30T11:16:24;4.22;;;2.10;;
40757;SDS011;26462;47.384;19.218;2023-07-30T11:18:51;5.00;;;1.98;;
40757;SDS011;26462;47.384;19.218;2023-07-30T11:21:19;5.43;;;1.90;;
40757;SDS011;26462;47.384;19.218;2023-07-30T11:23:46;4.43;;;2.25;;
40757;SDS011;26462;47.384;19.218;2023-07-30T11:26:15;4.50;;;2.33;;
40757;SDS011;26462;47.384;19.218;2023-07-30T11:28:44;3.38;;;1.60;;
40757;SDS011;26462;47.384;19.218;2023-07-30T11:31:13;2.85;;;1.60;;
40757;SDS011;26462;47.384;19.218;2023-07-30T11:33:43;2.95;;;1.67;;
40757;SDS011;26462;47.384;19.218;2023-07-30T11:36:24;2.63;;;1.48;;
40757;SDS011;26462;47.384;19.218;2023-07-30T11:41:20;3.95;;;1.50;;
40757;SDS011;26462;47.384;19.218;2023-07-30T11:43:50;2.17;;;1.83;;
40757;SDS011;26462;47.384;19.218;2023-07-30T11:46:18;2.85;;;1.40;;
40757;SDS011;26462;47.384;19.218;2023-07-30T11:48:50;2.42;;;1.20;;
40757;SDS011;26462;47.384;19.218;2023-07-30T11:51:36;2.67;;;1.23;;
40757;SDS011;26462;47.384;19.218;2023-07-30T11:54:04;2.72;;;1.73;;
40757;SDS011;26462;47.384;19.218;2023-07-30T11:56:31;2.78;;;1.40;;
40757;SDS011;26462;47.384;19.218;2023-07-30T11:59:00;2.95;;;2.00;;
40757;SDS011;26462;47.384;19.218;2023-07-30T12:01:30;3.28;;;2.22;;
40757;SDS011;26462;47.384;19.218;2023-07-30T12:04:00;3.00;;;1.90;;
40757;SDS011;26462;47.384;19.218;2023-07-30T12:06:43;4.05;;;2.08;;
40757;SDS011;26462;47.384;19.218;2023-07-30T12:09:16;3.63;;;1.50;;
40757;SDS011;26462;47.384;19.218;2023-07-30T12:17:15;2.40;;;1.70;;
40757;SDS011;26462;47.384;19.218;2023-07-30T12:19:43;3.58;;;1.48;;
40757;SDS011;26462;47.384;19.218;2023-07-30T12:22:17;2.60;;;1.55;;
40757;SDS011;26462;47.384;19.218;2023-07-30T12:24:44;3.80;;;2.00;;
40757;SDS011;26462;47.384;19.218;2023-07-30T12:27:12;3.30;;;1.65;;
40757;SDS011;26462;47.384;19.218;2023-07-30T12:29:44;2.22;;;1.55;;
40757;SDS011;26462;47.384;19.218;2023-07-30T12:32:13;4.18;;;1.92;;
40757;SDS011;26462;47.384;19.218;2023-07-30T12:34:43;3.22;;;1.90;;
40757;SDS011;26462;47.384;19.218;2023-07-30T12:37:11;3.83;;;2.20;;
40757;SDS011;26462;47.384;19.218;2023-07-30T12:39:38;2.83;;;2.05;;
40757;SDS011;26462;47.384;19.218;2023-07-30T12:42:05;3.63;;;1.80;;
40757;SDS011;26462;47.384;19.218;2023-07-30T12:44:32;3.22;;;1.70;;
40757;SDS011;26462;47.384;19.218;2023-07-30T12:46:59;2.92;;;1.88;;
40757;SDS011;26462;47.384;19.218;2023-07-30T12:49:27;2.47;;;1.42;;
40757;SDS011;26462;47.384;19.218;2023-07-30T12:54:58;4.00;;;2.70;;
40757;SDS011;26462;47.384;19.218;2023-07-30T12:57:27;3.63;;;2.28;;
40757;SDS011;26462;47.384;19.218;2023-07-30T12:59:54;2.38;;;1.70;;
40757;SDS011;26462;47.384;19.218;2023-07-30T13:02:21;3.78;;;1.80;;
40757;SDS011;26462;47.384;19.218;2023-07-30T13:04:50;2.60;;;1.70;;
40757;SDS011;26462;47.384;19.218;2023-07-30T13:07:17;3.40;;;1.60;;
40757;SDS011;26462;47.384;19.218;2023-07-30T13:09:46;2.97;;;1.52;;
40757;SDS011;26462;47.384;19.218;2023-07-30T13:12:15;2.75;;;1.25;;
40757;SDS011;26462;47.384;19.218;2023-07-30T13:14:44;2.40;;;1.35;;
40757;SDS011;26462;47.384;19.218;2023-07-30T13:17:11;1.65;;;1.13;;
40757;SDS011;26462;47.384;19.218;2023-07-30T13:19:39;2.30;;;1.08;;
40757;SDS011;26462;47.384;19.218;2023-07-30T13:22:07;4.32;;;1.75;;
40757;SDS011;26462;47.384;19.218;2023-07-30T13:24:34;2.47;;;1.05;;
40757;SDS011;26462;47.384;19.218;2023-07-30T13:27:03;1.83;;;1.13;;
40757;SDS011;26462;47.384;19.218;2023-07-30T13:29:30;3.70;;;1.40;;
40757;SDS011;26462;47.384;19.218;2023-07-30T13:31:58;3.33;;;0.98;;
40757;SDS011;26462;47.384;19.218;2023-07-30T13:34:26;1.55;;;1.02;;
40757;SDS011;26462;47.384;19.218;2023-07-30T13:36:54;1.67;;;0.70;;
40757;SDS011;26462;47.384;19.218;2023-07-30T13:39:21;1.25;;;0.30;;
40757;SDS011;26462;47.384;19.218;2023-07-30T13:41:51;0.65;;;0.40;;
40757;SDS011;26462;47.384;19.218;2023-07-30T13:44:22;1.25;;;0.60;;
40757;SDS011;26462;47.384;19.218;2023-07-30T13:46:49;1.05;;;0.30;;
40757;SDS011;26462;47.384;19.218;2023-07-30T13:49:17;1.75;;;0.45;;
40757;SDS011;26462;47.384;19.218;2023-07-30T13:51:44;0.57;;;0.28;;
40757;SDS011;26462;47.384;19.218;2023-07-30T13:54:12;0.60;;;0.30;;
40757;SDS011;26462;47.384;19.218;2023-07-30T13:56:41;1.23;;;0.45;;
40757;SDS011;26462;47.384;19.218;2023-07-30T13:59:09;0.85;;;0.30;;
40757;SDS011;26462;47.384;19.218;2023-07-30T14:01:37;1.55;;;0.30;;
40757;SDS011;26462;47.384;19.218;2023-07-30T14:04:05;0.60;;;0.30;;
40757;SDS011;26462;47.384;19.218;2023-07-30T14:06:32;0.60;;;0.25;;
40757;SDS011;26462;47.384;19.218;2023-07-30T14:09:00;0.82;;;0.30;;
40757;SDS011;26462;47.384;19.218;2023-07-30T14:11:28;0.60;;;0.30;;
40757;SDS011;26462;47.384;19.218;2023-07-30T14:13:56;1.88;;;0.30;;
40757;SDS011;26462;47.384;19.218;2023-07-30T14:16:24;1.13;;;0.35;;
40757;SDS011;26462;47.384;19.218;2023-07-30T14:18:52;1.42;;;0.40;;
40757;SDS011;26462;47.384;19.218;2023-07-30T14:21:20;0.50;;;0.30;;
40757;SDS011;26462;47.384;19.218;2023-07-30T14:23:48;0.60;;;0.20;;
40757;SDS011;26462;47.384;19.218;2023-07-30T14:26:16;1.60;;;0.40;;
40757;SDS011;26462;47.384;19.218;2023-07-30T14:28:43;0.55;;;0.20;;
40757;SDS011;26462;47.384;19.218;2023-07-30T14:31:10;0.93;;;0.30;;
40757;SDS011;26462;47.384;19.218;2023-07-30T14:33:38;0.93;;;0.40;;
40757;SDS011;26462;47.384;19.218;2023-07-30T14:36:05;1.50;;;0.50;;
40757;SDS011;26462;47.384;19.218;2023-07-30T14:38:32;0.70;;;0.40;;
40757;SDS011;26462;47.384;19.218;2023-07-30T14:41:00;0.88;;;0.30;;
40757;SDS011;26462;47.384;19.218;2023-07-30T14:43:28;0.93;;;0.40;;
40757;SDS011;26462;47.384;19.218;2023-07-30T14:45:56;0.70;;;0.30;;
40757;SDS011;26462;47.384;19.218;2023-07-30T14:48:23;1.40;;;0.45;;
40757;SDS011;26462;47.384;19.218;2023-07-30T14:50:50;0.80;;;0.30;;
40757;SDS011;26462;47.384;19.218;2023-07-30T14:53:18;1.00;;;0.32;;
40757;SDS011;26462;47.384;19.218;2023-07-30T14:55:45;1.17;;;0.57;;
40757;SDS011;26462;47.384;19.218;2023-07-30T14:58:12;1.27;;;0.55;;
40757;SDS011;26462;47.384;19.218;2023-07-30T15:00:40;1.35;;;0.25;;
40757;SDS011;26462;47.384;19.218;2023-07-30T15:03:07;0.70;;;0.40;;
40757;SDS011;26462;47.384;19.218;2023-07-30T15:05:35;1.13;;;0.43;;
40757;SDS011;26462;47.384;19.218;2023-07-30T15:08:04;1.20;;;0.40;;
40757;SDS011;26462;47.384;19.218;2023-07-30T15:10:32;0.85;;;0.40;;
40757;SDS011;26462;47.384;19.218;2023-07-30T15:13:01;1.23;;;0.65;;
40757;SDS011;26462;47.384;19.218;2023-07-30T15:15:29;0.93;;;0.38;;